Time;durP1;ratioP1;P1;durP2;ratioP2;P2;SDS_P1;SDS_P2;PMS_P1;PMS_P2;Temp;Humidity;BMP_temperature;BMP_pressure;BME280_temperature;BME280_humidity;BME280_pressure;Samples;Min_cycle;Max_cycle;Signal;HPM_P1;HPM_P2
2022/03/27 00:00:51;;;;;;;6.78;3.05;;;;;;;;;;5056073;28;20370;-78
2022/03/27 00:03:17;;;;;;;5.68;2.47;;;;;;;;;;5056038;28;20037;-77
2022/03/27 00:05:43;;;;;;;8.65;3.60;;;;;;;;;;5056433;28;20123;-78
2022/03/27 00:08:09;;;;;;;5.60;3.53;;;;;;;;;;5055955;28;20045;-77
2022/03/27 00:11:23;;;;;;;9.95;3.58;;;;;;;;;;5055835;28;20045;-78
2022/03/27 00:13:22;;;;;;;8.18;3.50;;;;;;;;;;5072591;28;20051;-77
2022/03/27 00:15:48;;;;;;;9.77;4.20;;;;;;;;;;5056313;28;20492;-78
2022/03/27 00:18:13;;;;;;;5.93;3.08;;;;;;;;;;5072241;28;20050;-78
2022/03/27 00:20:39;;;;;;;6.40;2.60;;;;;;;;;;5072423;28;20511;-77
2022/03/27 00:23:05;;;;;;;9.82;3.53;;;;;;;;;;5055884;28;20502;-78
2022/03/27 00:25:31;;;;;;;6.93;2.75;;;;;;;;;;5055764;28;20040;-77
2022/03/27 00:27:58;;;;;;;8.38;3.05;;;;;;;;;;5054987;28;20040;-77
2022/03/27 00:30:24;;;;;;;8.70;3.58;;;;;;;;;;5054224;28;20033;-77
2022/03/27 00:32:50;;;;;;;8.93;4.03;;;;;;;;;;5071299;28;20518;-77
2022/03/27 00:35:16;;;;;;;6.72;3.30;;;;;;;;;;5071242;28;20447;-78
2022/03/27 00:37:42;;;;;;;6.93;3.35;;;;;;;;;;5071174;28;20060;-77
2022/03/27 00:40:09;;;;;;;8.30;3.60;;;;;;;;;;5071129;28;20131;-78
2022/03/27 00:42:35;;;;;;;7.63;3.55;;;;;;;;;;5054576;28;20040;-77
2022/03/27 00:45:02;;;;;;;7.38;3.15;;;;;;;;;;5071208;28;20040;-77
2022/03/27 00:47:28;;;;;;;5.82;3.38;;;;;;;;;;5055233;28;20421;-77
2022/03/27 00:49:54;;;;;;;7.97;3.85;;;;;;;;;;5055032;28;20053;-77
2022/03/27 00:52:20;;;;;;;7.85;3.70;;;;;;;;;;5071654;28;20045;-77
2022/03/27 00:54:46;;;;;;;6.45;3.65;;;;;;;;;;5071889;28;20111;-77
2022/03/27 00:57:12;;;;;;;5.97;3.45;;;;;;;;;;5071727;28;20047;-77
2022/03/27 00:59:38;;;;;;;8.40;3.70;;;;;;;;;;5054980;28;20048;-77
2022/03/27 01:02:04;;;;;;;9.18;3.85;;;;;;;;;;5055049;28;20540;-77
2022/03/27 01:04:30;;;;;;;7.32;3.58;;;;;;;;;;5054941;28;20512;-77
2022/03/27 01:06:56;;;;;;;7.20;3.33;;;;;;;;;;5054759;28;20090;-77
2022/03/27 01:09:37;;;;;;;6.95;3.45;;;;;;;;;;5055015;28;20107;-77
2022/03/27 01:12:24;;;;;;;5.85;3.88;;;;;;;;;;5071521;28;20072;-77
2022/03/27 01:14:51;;;;;;;6.45;3.47;;;;;;;;;;5071194;28;20408;-77
2022/03/27 01:17:18;;;;;;;7.38;3.10;;;;;;;;;;5054627;28;20056;-77
2022/03/27 01:19:46;;;;;;;9.88;4.05;;;;;;;;;;5054996;28;20046;-77
2022/03/27 01:22:12;;;;;;;5.88;3.60;;;;;;;;;;5054612;28;20539;-77
2022/03/27 01:24:39;;;;;;;8.88;3.85;;;;;;;;;;5071286;28;20032;-77
2022/03/27 01:27:05;;;;;;;7.00;3.95;;;;;;;;;;5054501;28;20036;-77
2022/03/27 01:29:31;;;;;;;8.90;4.38;;;;;;;;;;5071634;28;20044;-77
2022/03/27 01:31:58;;;;;;;6.63;3.67;;;;;;;;;;5071307;28;20048;-77
2022/03/27 01:34:24;;;;;;;11.15;4.57;;;;;;;;;;5054388;28;20040;-77
2022/03/27 01:36:51;;;;;;;6.93;4.00;;;;;;;;;;5054442;28;20381;-77
2022/03/27 01:39:18;;;;;;;8.52;3.83;;;;;;;;;;5071025;28;20086;-77
2022/03/27 01:41:44;;;;;;;5.43;3.20;;;;;;;;;;5054130;28;20106;-77
2022/03/27 01:44:12;;;;;;;9.65;3.50;;;;;;;;;;5070949;28;20086;-77
2022/03/27 01:46:39;;;;;;;7.05;3.75;;;;;;;;;;5053705;28;20040;-78
2022/03/27 01:49:07;;;;;;;9.32;4.07;;;;;;;;;;5053731;28;20040;-78
2022/03/27 01:51:33;;;;;;;7.50;3.45;;;;;;;;;;5070217;28;20095;-77
2022/03/27 01:54:00;;;;;;;8.95;4.40;;;;;;;;;;5070060;28;20625;-78
2022/03/27 01:56:26;;;;;;;6.88;3.40;;;;;;;;;;5070413;28;20044;-77
2022/03/27 01:58:52;;;;;;;7.53;3.53;;;;;;;;;;5053538;28;20047;-78
2022/03/27 02:01:22;;;;;;;12.07;3.53;;;;;;;;;;5070048;28;20496;-78
2022/03/27 02:03:48;;;;;;;4.63;3.30;;;;;;;;;;5073534;28;20499;-78
2022/03/27 02:06:15;;;;;;;8.13;3.47;;;;;;;;;;5057470;28;20052;-77
2022/03/27 02:08:42;;;;;;;10.27;3.72;;;;;;;;;;5074434;28;20080;-78
2022/03/27 02:11:08;;;;;;;6.32;3.20;;;;;;;;;;5074516;28;20079;-77
2022/03/27 02:13:34;;;;;;;5.28;2.85;;;;;;;;;;5057279;28;20488;-78
2022/03/27 02:16:02;;;;;;;9.55;3.83;;;;;;;;;;5074012;28;20552;-78
2022/03/27 02:18:29;;;;;;;12.02;3.63;;;;;;;;;;5073814;28;20488;-78
2022/03/27 02:20:56;;;;;;;10.52;4.20;;;;;;;;;;5057109;28;20114;-77
2022/03/27 02:23:23;;;;;;;9.02;3.45;;;;;;;;;;5057222;28;20045;-78
2022/03/27 02:25:49;;;;;;;12.88;4.22;;;;;;;;;;5073851;28;20089;-78
2022/03/27 02:28:15;;;;;;;7.63;4.18;;;;;;;;;;5057014;28;20080;-77
2022/03/27 02:30:42;;;;;;;12.50;4.35;;;;;;;;;;5057034;28;20404;-77
2022/03/27 02:33:08;;;;;;;8.77;3.70;;;;;;;;;;5057250;28;20044;-76
2022/03/27 02:35:34;;;;;;;12.68;4.15;;;;;;;;;;5057174;28;20048;-77
2022/03/27 02:38:00;;;;;;;10.32;3.67;;;;;;;;;;5073564;28;20045;-77
2022/03/27 02:40:26;;;;;;;10.68;4.68;;;;;;;;;;5056995;28;20492;-77
2022/03/27 02:42:52;;;;;;;15.05;4.80;;;;;;;;;;5056759;28;20037;-77
2022/03/27 02:45:18;;;;;;;10.05;5.15;;;;;;;;;;5056591;28;20378;-77
2022/03/27 02:47:45;;;;;;;14.88;4.80;;;;;;;;;;5056695;28;20086;-77
2022/03/27 02:50:11;;;;;;;16.23;4.55;;;;;;;;;;5073650;28;20044;-77
2022/03/27 02:52:37;;;;;;;8.13;4.20;;;;;;;;;;5056770;28;20059;-77
2022/03/27 02:55:03;;;;;;;10.10;4.63;;;;;;;;;;5073418;28;20382;-78
2022/03/27 02:57:29;;;;;;;11.98;5.13;;;;;;;;;;5073386;28;20447;-78
2022/03/27 02:59:55;;;;;;;20.92;5.40;;;;;;;;;;5056886;28;20045;-77
2022/03/27 03:02:21;;;;;;;14.40;5.45;;;;;;;;;;5056332;28;20079;-77
2022/03/27 03:04:48;;;;;;;10.48;4.30;;;;;;;;;;5056423;28;20049;-78
2022/03/27 03:07:14;;;;;;;12.30;3.78;;;;;;;;;;5073321;28;20036;-78
2022/03/27 03:09:41;;;;;;;11.43;4.40;;;;;;;;;;5073257;28;20048;-77
2022/03/27 03:12:07;;;;;;;17.23;4.78;;;;;;;;;;5056417;28;20123;-77
2022/03/27 03:14:33;;;;;;;13.40;5.20;;;;;;;;;;5055798;28;20044;-77
2022/03/27 03:17:00;;;;;;;12.07;4.75;;;;;;;;;;5072796;28;20091;-77
2022/03/27 03:19:26;;;;;;;16.98;5.32;;;;;;;;;;5056150;28;20045;-78
2022/03/27 03:21:52;;;;;;;17.55;5.65;;;;;;;;;;5056014;28;20048;-77
2022/03/27 03:24:18;;;;;;;11.15;4.60;;;;;;;;;;5072841;28;20290;-78
2022/03/27 03:26:44;;;;;;;10.95;4.20;;;;;;;;;;5072582;28;20125;-77
2022/03/27 03:29:11;;;;;;;15.82;5.82;;;;;;;;;;5072665;28;20538;-78
2022/03/27 03:31:37;;;;;;;15.05;4.88;;;;;;;;;;5055976;28;20121;-78
2022/03/27 03:34:03;;;;;;;15.88;4.40;;;;;;;;;;5072554;28;20504;-78
2022/03/27 03:36:29;;;;;;;14.02;4.07;;;;;;;;;;5072581;28;20052;-79
2022/03/27 03:38:55;;;;;;;14.23;4.60;;;;;;;;;;5063455;28;20606;-78
2022/03/27 03:41:21;;;;;;;17.48;5.22;;;;;;;;;;5055872;28;20106;-77
2022/03/27 03:43:47;;;;;;;15.15;4.20;;;;;;;;;;5055494;28;20040;-78
2022/03/27 03:46:13;;;;;;;21.25;5.43;;;;;;;;;;5072382;28;20472;-78
2022/03/27 03:48:39;;;;;;;13.55;4.50;;;;;;;;;;5072146;28;20124;-78
2022/03/27 03:51:05;;;;;;;18.48;5.28;;;;;;;;;;5055409;28;20055;-78
2022/03/27 03:53:31;;;;;;;11.90;5.15;;;;;;;;;;5072225;28;20044;-78
2022/03/27 03:55:57;;;;;;;13.82;4.80;;;;;;;;;;5055351;28;20049;-78
2022/03/27 03:58:23;;;;;;;14.63;4.45;;;;;;;;;;5055451;28;20040;-78
2022/03/27 04:00:50;;;;;;;12.68;4.57;;;;;;;;;;5072311;28;20044;-79
2022/03/27 04:03:17;;;;;;;17.85;4.13;;;;;;;;;;5072262;28;20048;-78
2022/03/27 04:05:43;;;;;;;16.30;5.03;;;;;;;;;;5055474;28;20040;-78
2022/03/27 04:08:09;;;;;;;14.70;5.22;;;;;;;;;;5071805;28;20048;-78
2022/03/27 04:10:35;;;;;;;15.38;4.05;;;;;;;;;;5071846;28;20127;-79
2022/03/27 04:13:01;;;;;;;11.00;3.65;;;;;;;;;;5055066;28;20179;-78
2022/03/27 04:15:27;;;;;;;13.50;5.03;;;;;;;;;;5055176;28;20032;-78
2022/03/27 04:17:53;;;;;;;10.63;3.83;;;;;;;;;;5071549;28;20110;-78
2022/03/27 04:20:19;;;;;;;20.63;4.75;;;;;;;;;;5071555;28;20059;-78
2022/03/27 04:22:46;;;;;;;13.52;4.10;;;;;;;;;;5071471;28;20048;-78
2022/03/27 04:25:12;;;;;;;9.95;4.35;;;;;;;;;;5070820;28;20033;-77
2022/03/27 04:27:39;;;;;;;14.82;4.55;;;;;;;;;;5055266;28;20044;-77
2022/03/27 04:30:09;;;;;;;20.77;4.28;;;;;;;;;;5055030;28;20040;-78
2022/03/27 04:32:35;;;;;;;10.77;3.58;;;;;;;;;;5071275;28;20511;-77
2022/03/27 04:35:01;;;;;;;14.90;5.20;;;;;;;;;;5071334;28;20036;-77
2022/03/27 04:37:27;;;;;;;16.17;4.28;;;;;;;;;;5071373;28;20429;-77
2022/03/27 04:39:59;;;;;;;14.25;4.20;;;;;;;;;;5071141;28;20090;-77
2022/03/27 04:42:26;;;;;;;11.85;4.78;;;;;;;;;;5071192;28;20048;-78
2022/03/27 04:44:52;;;;;;;15.75;4.35;;;;;;;;;;5054518;28;20083;-78
2022/03/27 04:47:18;;;;;;;13.52;5.00;;;;;;;;;;5054504;28;20072;-78
2022/03/27 04:49:44;;;;;;;12.57;4.53;;;;;;;;;;5071067;28;20106;-77
2022/03/27 04:52:11;;;;;;;19.17;5.25;;;;;;;;;;5071078;28;20041;-78
2022/03/27 04:54:37;;;;;;;13.93;5.32;;;;;;;;;;5070881;28;20119;-77
2022/03/27 04:57:03;;;;;;;11.35;4.53;;;;;;;;;;5071002;28;20095;-77
2022/03/27 04:59:29;;;;;;;16.55;5.90;;;;;;;;;;5054642;28;20493;-77
2022/03/27 05:01:57;;;;;;;22.45;7.10;;;;;;;;;;5054178;28;20079;-77
2022/03/27 05:04:23;;;;;;;26.17;7.15;;;;;;;;;;5054054;28;20123;-77
2022/03/27 05:06:49;;;;;;;23.80;7.22;;;;;;;;;;5054090;28;20127;-77
2022/03/27 05:09:15;;;;;;;32.10;7.20;;;;;;;;;;5070647;28;20037;-77
2022/03/27 05:11:41;;;;;;;15.07;5.90;;;;;;;;;;5070771;28;20041;-77
2022/03/27 05:14:08;;;;;;;20.02;6.47;;;;;;;;;;5054549;28;20083;-77
2022/03/27 05:16:34;;;;;;;21.48;6.40;;;;;;;;;;5054055;28;20051;-77
2022/03/27 05:19:00;;;;;;;28.20;7.18;;;;;;;;;;5053707;28;20056;-77
2022/03/27 05:21:26;;;;;;;21.70;5.80;;;;;;;;;;5053753;28;20051;-78
2022/03/27 05:23:52;;;;;;;16.48;5.68;;;;;;;;;;5053779;28;20069;-77
2022/03/27 05:26:18;;;;;;;19.58;5.47;;;;;;;;;;5070841;28;20152;-77
2022/03/27 05:28:44;;;;;;;15.80;5.95;;;;;;;;;;5053760;28;20044;-77
2022/03/27 05:31:10;;;;;;;17.40;6.50;;;;;;;;;;5053260;28;20128;-78
2022/03/27 05:33:37;;;;;;;12.18;5.35;;;;;;;;;;5052423;28;20039;-78
2022/03/27 05:36:04;;;;;;;15.70;5.63;;;;;;;;;;5069293;28;20290;-78
2022/03/27 05:38:30;;;;;;;15.48;5.10;;;;;;;;;;5066475;28;20040;-78
2022/03/27 05:40:56;;;;;;;14.77;5.45;;;;;;;;;;5068681;28;20036;-78
2022/03/27 05:43:22;;;;;;;16.45;5.53;;;;;;;;;;5068823;28;20043;-78
2022/03/27 05:45:48;;;;;;;16.58;5.38;;;;;;;;;;5068962;28;20039;-77
2022/03/27 05:48:14;;;;;;;20.67;5.80;;;;;;;;;;5069019;28;20047;-78
2022/03/27 05:50:40;;;;;;;16.42;5.70;;;;;;;;;;5052413;28;20029;-78
2022/03/27 05:53:06;;;;;;;21.95;6.63;;;;;;;;;;5052160;28;20036;-78
2022/03/27 05:55:32;;;;;;;16.00;5.97;;;;;;;;;;5069050;28;20074;-78
2022/03/27 05:58:00;;;;;;;14.00;5.38;;;;;;;;;;5052201;28;20044;-78
2022/03/27 06:00:26;;;;;;;14.30;6.20;;;;;;;;;;5052051;28;20044;-77
2022/03/27 06:02:52;;;;;;;13.13;5.45;;;;;;;;;;5052235;28;20032;-77
2022/03/27 06:05:22;;;;;;;13.52;6.30;;;;;;;;;;5052066;28;20041;-77
2022/03/27 06:07:49;;;;;;;15.38;6.75;;;;;;;;;;5069159;28;20075;-77
2022/03/27 06:10:16;;;;;;;12.88;5.85;;;;;;;;;;5068867;28;20028;-77
2022/03/27 06:12:49;;;;;;;15.75;6.32;;;;;;;;;;5068788;28;20058;-77
2022/03/27 06:15:15;;;;;;;12.48;6.10;;;;;;;;;;5048367;28;20082;-78
2022/03/27 06:17:43;;;;;;;18.38;6.90;;;;;;;;;;5048259;28;20057;-77
2022/03/27 06:20:10;;;;;;;15.90;6.20;;;;;;;;;;5064929;28;20409;-77
2022/03/27 06:22:37;;;;;;;18.67;5.82;;;;;;;;;;5048283;28;20040;-78
2022/03/27 06:25:03;;;;;;;15.68;5.88;;;;;;;;;;5048577;28;20551;-77
2022/03/27 06:27:29;;;;;;;23.85;6.18;;;;;;;;;;5049510;28;20037;-78
2022/03/27 06:29:55;;;;;;;15.40;6.30;;;;;;;;;;5065824;28;20094;-77
2022/03/27 06:32:21;;;;;;;19.77;6.25;;;;;;;;;;5049528;28;20044;-77
2022/03/27 06:34:47;;;;;;;16.17;5.03;;;;;;;;;;5066566;28;20054;-77
2022/03/27 06:37:13;;;;;;;20.05;7.10;;;;;;;;;;5066140;28;20052;-78
2022/03/27 06:39:39;;;;;;;15.52;4.45;;;;;;;;;;5066208;28;20044;-77
2022/03/27 06:42:05;;;;;;;12.65;4.75;;;;;;;;;;5048752;28;20047;-78
2022/03/27 06:44:31;;;;;;;14.63;4.55;;;;;;;;;;5049658;28;20120;-79
2022/03/27 06:46:57;;;;;;;17.33;5.13;;;;;;;;;;5066152;28;20041;-78
2022/03/27 06:49:23;;;;;;;18.77;5.13;;;;;;;;;;5051979;28;20170;-78
2022/03/27 06:51:50;;;;;;;15.45;4.63;;;;;;;;;;5069848;28;20044;-78
2022/03/27 06:54:16;;;;;;;23.73;5.35;;;;;;;;;;5052831;28;20135;-77
2022/03/27 06:56:42;;;;;;;17.60;4.57;;;;;;;;;;5069659;28;20371;-78
2022/03/27 06:59:09;;;;;;;21.38;4.63;;;;;;;;;;5069881;28;20052;-78
2022/03/27 07:04:19;;;;;;;9.52;2.72;;;;;;;;;;5071369;28;20075;-78
2022/03/27 07:06:45;;;;;;;17.27;4.53;;;;;;;;;;5056712;28;20067;-77
2022/03/27 07:09:13;;;;;;;22.20;5.80;;;;;;;;;;5073620;28;20043;-79
2022/03/27 07:11:39;;;;;;;16.13;4.53;;;;;;;;;;5073527;28;20051;-78
2022/03/27 07:14:05;;;;;;;25.40;4.97;;;;;;;;;;5056556;28;20050;-78
2022/03/27 07:16:31;;;;;;;11.30;3.13;;;;;;;;;;5055919;28;20125;-78
2022/03/27 07:18:58;;;;;;;17.70;4.65;;;;;;;;;;5073442;28;20063;-78
2022/03/27 07:21:24;;;;;;;13.75;4.15;;;;;;;;;;5072961;28;20543;-79
2022/03/27 07:23:50;;;;;;;13.85;2.63;;;;;;;;;;5075224;28;20041;-76
2022/03/27 07:26:17;;;;;;;15.30;3.58;;;;;;;;;;5061328;28;20119;-79
2022/03/27 07:28:43;;;;;;;7.57;1.75;;;;;;;;;;5080019;28;20431;-78
2022/03/27 07:31:11;;;;;;;13.45;3.28;;;;;;;;;;5066864;28;20040;-78
2022/03/27 07:33:38;;;;;;;12.60;2.80;;;;;;;;;;5060711;28;20098;-77
2022/03/27 07:36:04;;;;;;;16.75;3.13;;;;;;;;;;5084706;28;20079;-77
2022/03/27 07:38:31;;;;;;;11.25;2.13;;;;;;;;;;5061883;28;20087;-79
2022/03/27 07:40:59;;;;;;;8.05;2.67;;;;;;;;;;5080189;28;20047;-77
2022/03/27 07:43:25;;;;;;;11.50;2.67;;;;;;;;;;5064533;28;20048;-77
2022/03/27 07:45:51;;;;;;;15.00;3.13;;;;;;;;;;5076490;28;20040;-79
2022/03/27 07:48:17;;;;;;;3.25;1.58;;;;;;;;;;5060591;28;20047;-79
2022/03/27 07:50:54;;;;;;;26.65;3.83;;;;;;;;;;5061361;28;20090;-79
2022/03/27 07:53:21;;;;;;;17.45;3.92;;;;;;;;;;5058083;28;20040;-79
2022/03/27 07:55:47;;;;;;;10.07;2.70;;;;;;;;;;5078099;28;20040;-77
2022/03/27 07:58:13;;;;;;;35.47;5.45;;;;;;;;;;5077977;28;20072;-79
2022/03/27 08:00:39;;;;;;;7.60;2.97;;;;;;;;;;5054608;28;20119;-79
2022/03/27 08:03:05;;;;;;;25.20;5.43;;;;;;;;;;5056689;28;20036;-77
2022/03/27 08:05:31;;;;;;;20.50;2.78;;;;;;;;;;5079355;28;20032;-79
2022/03/27 08:07:57;;;;;;;5.45;1.52;;;;;;;;;;5058359;28;20060;-78
2022/03/27 08:10:23;;;;;;;17.40;3.05;;;;;;;;;;5060249;28;20086;-79
2022/03/27 08:12:49;;;;;;;9.75;2.80;;;;;;;;;;5072168;28;20510;-80
2022/03/27 08:15:17;;;;;;;20.00;5.03;;;;;;;;;;5056870;28;20076;-78
2022/03/27 08:17:43;;;;;;;19.33;4.03;;;;;;;;;;5055523;28;20154;-80
2022/03/27 08:20:10;;;;;;;16.00;4.47;;;;;;;;;;5074786;28;20127;-77
2022/03/27 08:22:36;;;;;;;6.13;2.80;;;;;;;;;;5086746;28;20095;-77
2022/03/27 08:25:02;;;;;;;27.67;5.65;;;;;;;;;;5061703;28;20084;-79
2022/03/27 08:27:28;;;;;;;25.45;5.22;;;;;;;;;;5071951;28;20045;-80
2022/03/27 08:29:55;;;;;;;25.73;4.78;;;;;;;;;;5055178;28;20046;-79
2022/03/27 08:32:21;;;;;;;20.02;4.30;;;;;;;;;;5055968;28;20135;-79
2022/03/27 08:34:47;;;;;;;29.88;5.68;;;;;;;;;;5054922;28;20048;-80
2022/03/27 08:37:14;;;;;;;20.67;4.57;;;;;;;;;;5055220;28;20492;-80
2022/03/27 08:39:44;;;;;;;20.48;4.32;;;;;;;;;;5054665;28;20067;-79
2022/03/27 08:42:10;;;;;;;16.80;4.03;;;;;;;;;;5071705;28;20040;-79
2022/03/27 08:44:37;;;;;;;23.27;4.90;;;;;;;;;;5054953;28;20588;-79
2022/03/27 08:47:06;;;;;;;20.95;4.45;;;;;;;;;;5054813;28;20041;-81
2022/03/27 08:49:41;;;;;;;12.32;4.00;;;;;;;;;;5055435;28;20121;-79
2022/03/27 08:52:11;;;;;;;21.35;5.35;;;;;;;;;;5055614;28;20048;-79
2022/03/27 08:54:57;;;;;;;16.73;2.90;;;;;;;;;;5054605;28;20086;-79
2022/03/27 08:57:42;;;;;;;22.92;4.22;;;;;;;;;;5048006;28;20169;-79
2022/03/27 09:00:08;;;;;;;23.95;5.47;;;;;;;;;;5070819;28;20041;-80
2022/03/27 09:02:34;;;;;;;18.63;3.45;;;;;;;;;;5073262;28;20413;-81
2022/03/27 09:05:00;;;;;;;17.95;3.55;;;;;;;;;;5057887;28;20045;-78
2022/03/27 09:07:28;;;;;;;24.58;4.43;;;;;;;;;;5070823;28;20556;-80
2022/03/27 09:09:55;;;;;;;14.45;4.30;;;;;;;;;;5072767;28;20068;-78
2022/03/27 09:12:21;;;;;;;21.80;4.45;;;;;;;;;;5070687;28;20476;-79
2022/03/27 09:14:48;;;;;;;19.45;3.88;;;;;;;;;;5071324;28;20102;-79
2022/03/27 09:17:14;;;;;;;19.45;4.57;;;;;;;;;;5053924;28;20060;-82
2022/03/27 09:19:50;;;;;;;16.27;4.15;;;;;;;;;;5054957;28;20040;-78
2022/03/27 09:22:21;;;;;;;18.00;3.47;;;;;;;;;;5057130;28;20159;-79
2022/03/27 09:24:48;;;;;;;16.33;4.22;;;;;;;;;;5075304;28;20082;-81
2022/03/27 09:27:15;;;;;;;10.98;2.30;;;;;;;;;;5058254;28;20124;-79
2022/03/27 09:29:59;;;;;;;16.75;3.95;;;;;;;;;;5073627;28;20036;-79
2022/03/27 09:32:26;;;;;;;20.63;5.32;;;;;;;;;;5054234;28;20062;-79
2022/03/27 09:35:04;;;;;;;20.63;4.35;;;;;;;;;;5053918;28;20375;-80
2022/03/27 09:37:41;;;;;;;17.75;4.53;;;;;;;;;;5070499;28;20052;-80
2022/03/27 09:40:08;;;;;;;23.45;4.72;;;;;;;;;;5054017;28;20044;-80
2022/03/27 09:42:36;;;;;;;24.05;5.10;;;;;;;;;;5056451;28;20083;-80
2022/03/27 09:45:19;;;;;;;16.80;5.05;;;;;;;;;;5053785;28;20037;-79
2022/03/27 09:47:46;;;;;;;20.13;5.00;;;;;;;;;;5070427;28;20036;-79
2022/03/27 09:50:28;;;;;;;18.35;3.72;;;;;;;;;;5070898;28;20044;-79
2022/03/27 09:53:14;;;;;;;15.82;4.30;;;;;;;;;;5053438;28;20055;-80
2022/03/27 09:55:40;;;;;;;11.05;2.75;;;;;;;;;;5055757;28;20051;-78
2022/03/27 09:58:09;;;;;;;17.02;3.60;;;;;;;;;;5054102;28;20044;-78
2022/03/27 10:00:35;;;;;;;14.13;3.53;;;;;;;;;;5053342;28;20052;-79
2022/03/27 10:03:09;;;;;;;8.65;2.60;;;;;;;;;;5055372;28;20044;-79
2022/03/27 10:05:35;;;;;;;18.05;3.22;;;;;;;;;;5072105;28;20540;-79
2022/03/27 10:08:02;;;;;;;3.10;1.17;;;;;;;;;;5070552;28;20051;-81
2022/03/27 10:10:28;;;;;;;9.82;2.38;;;;;;;;;;5072353;28;20089;-79
2022/03/27 10:12:58;;;;;;;17.38;2.97;;;;;;;;;;5053277;28;20048;-80
2022/03/27 10:15:25;;;;;;;17.77;3.25;;;;;;;;;;5053479;28;20076;-79
2022/03/27 10:18:03;;;;;;;5.28;1.48;;;;;;;;;;5074354;28;20071;-79
2022/03/27 10:20:32;;;;;;;19.17;3.35;;;;;;;;;;5072217;28;20051;-78
2022/03/27 10:23:27;;;;;;;10.73;3.70;;;;;;;;;;5068337;28;20471;-79
2022/03/27 10:25:55;;;;;;;11.02;3.63;;;;;;;;;;5063737;28;20052;-80
2022/03/27 10:28:22;;;;;;;15.88;2.92;;;;;;;;;;5072559;28;20126;-78
2022/03/27 10:30:51;;;;;;;11.23;3.13;;;;;;;;;;5072277;28;20427;-81
2022/03/27 10:33:18;;;;;;;15.88;2.45;;;;;;;;;;5058313;28;20127;-80
2022/03/27 10:35:50;;;;;;;12.52;2.83;;;;;;;;;;5055589;28;20059;-79
2022/03/27 10:38:20;;;;;;;21.50;4.43;;;;;;;;;;5071181;28;20048;-79
2022/03/27 10:40:58;;;;;;;14.27;3.27;;;;;;;;;;5070385;28;20059;-79
2022/03/27 10:43:29;;;;;;;11.00;2.63;;;;;;;;;;5072473;28;20275;-79
2022/03/27 10:46:12;;;;;;;13.63;3.03;;;;;;;;;;5053786;28;20044;-80
2022/03/27 10:48:42;;;;;;;23.80;3.95;;;;;;;;;;5055010;28;20170;-80
2022/03/27 10:51:08;;;;;;;10.73;3.35;;;;;;;;;;5059262;28;20123;-78
2022/03/27 10:53:34;;;;;;;15.70;2.75;;;;;;;;;;5056092;28;20139;-79
2022/03/27 10:56:00;;;;;;;16.83;3.35;;;;;;;;;;5058155;28;20079;-78
2022/03/27 10:58:28;;;;;;;18.60;3.03;;;;;;;;;;5075432;28;20040;-80
2022/03/27 11:00:54;;;;;;;16.67;3.90;;;;;;;;;;5071404;28;20048;-79
2022/03/27 11:03:39;;;;;;;11.23;2.67;;;;;;;;;;5070415;28;20123;-80
2022/03/27 11:06:05;;;;;;;12.93;2.00;;;;;;;;;;5055711;28;20047;-80
2022/03/27 11:08:31;;;;;;;15.98;3.42;;;;;;;;;;5059135;28;20037;-79
2022/03/27 11:10:59;;;;;;;14.77;3.35;;;;;;;;;;5075494;28;20298;-78
2022/03/27 11:13:25;;;;;;;11.35;3.10;;;;;;;;;;5073275;28;20106;-80
2022/03/27 11:16:07;;;;;;;15.25;3.45;;;;;;;;;;5058112;28;20044;-80
2022/03/27 11:18:47;;;;;;;9.20;2.75;;;;;;;;;;5076267;28;20053;-81
2022/03/27 11:21:14;;;;;;;5.35;2.75;;;;;;;;;;5061949;28;20147;-80
2022/03/27 11:23:41;;;;;;;10.40;3.03;;;;;;;;;;5075033;28;20077;-79
2022/03/27 11:26:30;;;;;;;18.77;4.03;;;;;;;;;;5056438;28;20500;-81
2022/03/27 11:29:04;;;;;;;8.60;2.40;;;;;;;;;;5053786;28;20049;-81
2022/03/27 11:31:37;;;;;;;10.27;2.88;;;;;;;;;;5056360;28;20587;-79
2022/03/27 11:34:14;;;;;;;11.45;2.30;;;;;;;;;;5058328;28;20507;-79
2022/03/27 11:36:40;;;;;;;5.43;1.60;;;;;;;;;;5056100;28;20190;-77
2022/03/27 11:39:11;;;;;;;6.22;2.28;;;;;;;;;;5071040;28;20512;-80
2022/03/27 11:41:42;;;;;;;12.98;2.80;;;;;;;;;;5075986;28;20131;-81
2022/03/27 11:47:12;;;;;;;13.98;2.80;;;;;;;;;;5078682;28;20059;-78
2022/03/27 11:49:39;;;;;;;11.23;3.00;;;;;;;;;;5060468;28;20499;-81
2022/03/27 11:52:05;;;;;;;12.98;2.63;;;;;;;;;;5059404;28;20040;-82
2022/03/27 11:54:31;;;;;;;15.75;3.50;;;;;;;;;;5056705;28;20033;-80
2022/03/27 11:56:58;;;;;;;18.00;3.33;;;;;;;;;;5056670;28;20396;-79
2022/03/27 11:59:28;;;;;;;9.95;2.50;;;;;;;;;;5058663;28;20039;-82
2022/03/27 12:02:01;;;;;;;9.05;3.35;;;;;;;;;;5059521;28;20047;-81
2022/03/27 12:04:27;;;;;;;15.45;3.00;;;;;;;;;;5057859;28;20392;-83
2022/03/27 12:06:57;;;;;;;12.00;2.95;;;;;;;;;;5077021;28;20151;-81
2022/03/27 12:09:28;;;;;;;13.02;3.45;;;;;;;;;;5060092;28;20267;-82
2022/03/27 12:12:04;;;;;;;12.65;2.83;;;;;;;;;;5073138;28;20420;-81
2022/03/27 12:14:30;;;;;;;19.30;3.70;;;;;;;;;;5074668;28;20131;-81
2022/03/27 12:16:56;;;;;;;11.55;2.17;;;;;;;;;;5055731;28;20138;-79
2022/03/27 12:19:22;;;;;;;19.38;3.78;;;;;;;;;;5059669;28;20056;-80
2022/03/27 12:21:48;;;;;;;15.77;3.05;;;;;;;;;;5073316;28;20040;-80
2022/03/27 12:24:16;;;;;;;10.90;2.85;;;;;;;;;;5071678;28;20049;-81
2022/03/27 12:29:40;;;;;;;8.93;2.70;;;;;;;;;;5072766;28;20037;-81
2022/03/27 12:32:28;;;;;;;5.50;2.72;;;;;;;;;;5056284;28;20076;-81
2022/03/27 12:34:55;;;;;;;13.25;2.60;;;;;;;;;;5058506;28;20074;-82
2022/03/27 12:37:25;;;;;;;12.55;2.80;;;;;;;;;;5073394;28;20416;-79
2022/03/27 12:39:51;;;;;;;11.55;2.72;;;;;;;;;;5054988;28;20131;-80
2022/03/27 12:42:36;;;;;;;12.95;3.40;;;;;;;;;;5056042;28;20144;-80
2022/03/27 12:45:08;;;;;;;8.55;2.25;;;;;;;;;;5056072;28;20041;-80
2022/03/27 12:47:46;;;;;;;11.52;3.42;;;;;;;;;;5054509;28;20045;-80
2022/03/27 12:50:13;;;;;;;10.02;3.47;;;;;;;;;;5057471;28;20131;-81
2022/03/27 12:52:46;;;;;;;10.55;3.28;;;;;;;;;;5075196;28;20395;-81
2022/03/27 12:55:13;;;;;;;6.18;1.75;;;;;;;;;;5074709;28;20136;-83
2022/03/27 12:57:52;;;;;;;16.60;3.25;;;;;;;;;;5058293;28;20046;-80
2022/03/27 13:00:19;;;;;;;8.98;2.72;;;;;;;;;;5061572;28;20484;-82
2022/03/27 13:02:45;;;;;;;13.02;2.13;;;;;;;;;;5061942;28;20080;-83
2022/03/27 13:05:11;;;;;;;4.00;1.52;;;;;;;;;;5059404;28;20047;-79
2022/03/27 13:07:57;;;;;;;17.63;3.28;;;;;;;;;;5057103;28;20040;-82
2022/03/27 13:10:24;;;;;;;10.55;2.38;;;;;;;;;;5057922;28;20093;-78
2022/03/27 13:13:07;;;;;;;7.63;1.88;;;;;;;;;;5079119;28;20093;-78
2022/03/27 13:15:50;;;;;;;15.30;2.95;;;;;;;;;;5058075;28;20531;-82
2022/03/27 13:18:17;;;;;;;17.02;3.75;;;;;;;;;;5059207;28;20121;-78
2022/03/27 13:20:47;;;;;;;11.02;3.05;;;;;;;;;;5079278;28;20518;-81
2022/03/27 13:23:14;;;;;;;12.52;3.00;;;;;;;;;;5054568;28;20507;-75
2022/03/27 13:25:40;;;;;;;18.52;3.45;;;;;;;;;;5075267;28;20484;-80
2022/03/27 13:28:06;;;;;;;10.70;2.45;;;;;;;;;;5079388;28;20047;-83
2022/03/27 13:30:32;;;;;;;11.52;4.13;;;;;;;;;;5059402;28;20037;-82
2022/03/27 13:32:58;;;;;;;8.35;1.92;;;;;;;;;;5060766;28;20127;-82
2022/03/27 13:35:25;;;;;;;12.73;4.45;;;;;;;;;;5063503;28;20036;-81
2022/03/27 13:37:51;;;;;;;12.75;3.08;;;;;;;;;;5056674;28;20056;-79
2022/03/27 13:40:17;;;;;;;11.60;2.30;;;;;;;;;;5058261;28;20096;-81
2022/03/27 13:42:59;;;;;;;13.60;2.92;;;;;;;;;;5073106;28;20048;-80
2022/03/27 13:45:29;;;;;;;11.52;2.90;;;;;;;;;;5059810;28;20036;-80
2022/03/27 13:47:55;;;;;;;16.03;3.43;;;;;;;;;;5075646;28;20046;-81
2022/03/27 13:50:21;;;;;;;14.93;2.78;;;;;;;;;;5062436;28;20036;-78
2022/03/27 13:52:47;;;;;;;16.25;3.60;;;;;;;;;;5058806;28;20071;-83
2022/03/27 13:55:13;;;;;;;11.55;2.65;;;;;;;;;;5076155;28;20078;-82
2022/03/27 13:57:39;;;;;;;17.48;3.38;;;;;;;;;;5059648;28;20070;-79
2022/03/27 14:00:06;;;;;;;8.98;2.58;;;;;;;;;;5058266;28;20044;-79
2022/03/27 14:02:32;;;;;;;18.63;4.18;;;;;;;;;;5075910;28;20048;-81
2022/03/27 14:04:58;;;;;;;14.27;3.42;;;;;;;;;;5059079;28;20032;-81
2022/03/27 14:07:25;;;;;;;13.93;3.42;;;;;;;;;;5075728;28;20515;-82
2022/03/27 14:09:51;;;;;;;10.65;2.58;;;;;;;;;;5058919;28;20090;-82
2022/03/27 14:12:16;;;;;;;13.57;3.00;;;;;;;;;;5059774;28;20294;-83
2022/03/27 14:14:43;;;;;;;13.95;2.50;;;;;;;;;;5063040;28;20107;-84
2022/03/27 14:17:09;;;;;;;14.52;2.22;;;;;;;;;;5079061;28;20392;-81
2022/03/27 14:19:35;;;;;;;17.08;3.22;;;;;;;;;;5062705;28;20563;-79
2022/03/27 14:22:02;;;;;;;6.35;1.98;;;;;;;;;;5047678;28;20066;-81
2022/03/27 14:24:28;;;;;;;9.40;2.25;;;;;;;;;;5075302;28;20120;-82
2022/03/27 14:26:54;;;;;;;6.15;1.92;;;;;;;;;;5071184;28;20043;-85
2022/03/27 14:29:22;;;;;;;6.13;1.70;;;;;;;;;;5079162;28;20040;-82
2022/03/27 14:31:55;;;;;;;14.00;2.58;;;;;;;;;;5079598;28;20044;-82
2022/03/27 14:34:21;;;;;;;6.38;1.13;;;;;;;;;;5060774;28;20103;-83
2022/03/27 14:36:47;;;;;;;7.63;2.58;;;;;;;;;;5065766;28;20037;-81
2022/03/27 14:39:14;;;;;;;18.70;2.83;;;;;;;;;;5077536;28;20048;-83
2022/03/27 14:41:40;;;;;;;10.52;2.15;;;;;;;;;;5077431;28;20037;-79
2022/03/27 14:44:07;;;;;;;13.05;2.17;;;;;;;;;;5081203;28;20075;-84
2022/03/27 14:46:36;;;;;;;4.88;1.25;;;;;;;;;;5059269;28;20041;-80